createdAt,value
2022-08-11T00:01:15.693Z,39.96
2022-08-11T00:03:48.967Z,39.80
2022-08-11T00:06:27.344Z,39.83
2022-08-11T00:08:56.697Z,39.79
2022-08-11T00:11:36.259Z,39.82
2022-08-11T00:14:06.693Z,39.54
2022-08-11T00:16:35.372Z,39.85
2022-08-11T00:19:04.927Z,39.68
2022-08-11T00:22:04.707Z,39.36
2022-08-11T00:24:53.311Z,39.48
2022-08-11T00:27:32.221Z,39.40
2022-08-11T00:30:02.057Z,39.65
2022-08-11T00:32:31.721Z,39.46
2022-08-11T00:35:53.663Z,39.89
2022-08-11T00:37:57.109Z,40.15
2022-08-11T00:40:34.638Z,39.92
2022-08-11T00:43:20.757Z,39.96
2022-08-11T00:46:12.315Z,40.36
2022-08-11T00:48:50.243Z,40.36
2022-08-11T00:52:04.444Z,40.29
2022-08-11T00:54:59.745Z,40.19
2022-08-11T00:58:01.877Z,40.33
2022-08-11T01:00:41.977Z,40.27
2022-08-11T01:03:26.353Z,40.50
2022-08-11T01:06:12.996Z,40.81
2022-08-11T01:09:17.883Z,40.56
2022-08-11T01:12:22.221Z,40.61
2022-08-11T01:15:40.659Z,40.95
2022-08-11T01:18:32.370Z,40.91
2022-08-11T01:21:17.780Z,41.03
2022-08-11T01:24:39.811Z,41.28
2022-08-11T01:27:25.477Z,41.21
2022-08-11T01:30:22.061Z,41.63
2022-08-11T01:33:29.932Z,41.74
2022-08-11T01:36:31.367Z,41.71
2022-08-11T01:39:24.860Z,41.50
2022-08-11T01:42:46.850Z,41.50
2022-08-11T01:45:29.354Z,41.96
2022-08-11T01:48:09.072Z,41.60
2022-08-11T01:51:04.038Z,41.81
2022-08-11T01:53:46.281Z,41.66
2022-08-11T01:56:29.565Z,42.09
2022-08-11T01:59:07.361Z,42.04
2022-08-11T02:02:02.466Z,41.87
2022-08-11T02:04:36.112Z,42.33
2022-08-11T02:07:14.982Z,42.41
2022-08-11T02:10:35.139Z,42.34
2022-08-11T02:13:13.367Z,42.37
2022-08-11T02:15:48.251Z,42.52
2022-08-11T02:18:45.697Z,42.28
2022-08-11T02:21:38.111Z,42.40
2022-08-11T02:24:15.554Z,42.47
2022-08-11T02:26:51.685Z,42.83
2022-08-11T02:29:27.028Z,42.63
2022-08-11T02:32:29.772Z,42.91
2022-08-11T02:35:15.361Z,42.81
2022-08-11T02:37:53.355Z,42.90
2022-08-11T02:40:35.480Z,43.12
2022-08-11T02:43:23.607Z,43.01
2022-08-11T02:46:05.852Z,42.92
2022-08-11T02:49:05.580Z,42.87
2022-08-11T02:51:41.929Z,43.14
2022-08-11T02:54:20.926Z,43.01
2022-08-11T02:56:55.995Z,42.99
2022-08-11T02:59:54.321Z,43.30
2022-08-11T03:02:34.691Z,43.29
2022-08-11T03:05:14.492Z,43.06
2022-08-11T03:07:57.220Z,42.88
2022-08-11T03:10:34.326Z,43.27
2022-08-11T03:13:30.147Z,43.24
2022-08-11T03:16:40.376Z,43.35
2022-08-11T03:19:17.085Z,43.32
2022-08-11T03:22:02.853Z,43.70
2022-08-11T03:24:45.628Z,43.66
2022-08-11T03:27:30.137Z,43.71
2022-08-11T03:30:07.926Z,43.46
2022-08-11T03:33:07.354Z,43.47
2022-08-11T03:35:42.654Z,43.64
2022-08-11T03:38:15.833Z,43.49
2022-08-11T03:42:02.086Z,43.80
2022-08-11T03:44:20.383Z,43.94
2022-08-11T03:47:09.959Z,43.71
2022-08-11T03:49:54.837Z,43.57
2022-08-11T03:52:34.436Z,43.71
2022-08-11T03:55:15.678Z,43.34
2022-08-11T03:58:32.294Z,43.51
2022-08-11T04:01:39.500Z,43.47
2022-08-11T04:04:25.758Z,43.46
2022-08-11T04:07:34.675Z,43.35
2022-08-11T04:10:43.407Z,43.31
2022-08-11T04:13:41.420Z,43.45
2022-08-11T04:16:24.788Z,43.32
2022-08-11T04:19:42.992Z,43.55
2022-08-11T04:23:03.935Z,43.33
2022-08-11T04:26:01.224Z,43.36
2022-08-11T04:29:09.598Z,43.33
2022-08-11T04:31:52.042Z,43.31
2022-08-11T04:34:46.123Z,43.74
2022-08-11T04:37:34.645Z,43.61
2022-08-11T04:40:35.200Z,43.89
2022-08-11T04:44:05.730Z,43.50
2022-08-11T04:47:09.216Z,43.55
2022-08-11T04:50:16.917Z,43.77
2022-08-11T04:53:34.068Z,43.52
2022-08-11T04:56:33.481Z,43.67
2022-08-11T04:59:59.182Z,43.90
2022-08-11T05:03:04.646Z,43.48
2022-08-11T05:05:56.804Z,43.87
2022-08-11T05:09:07.056Z,43.62
2022-08-11T05:11:57.942Z,43.70
2022-08-11T05:14:57.958Z,43.77
2022-08-11T05:17:54.659Z,43.72
2022-08-11T05:20:44.508Z,43.68
2022-08-11T05:23:32.041Z,43.53
2022-08-11T05:26:47.885Z,43.48
2022-08-11T05:29:45.126Z,43.70
2022-08-11T05:32:35.418Z,43.71
2022-08-11T05:35:08.604Z,43.65
2022-08-11T05:37:58.593Z,43.64
2022-08-11T05:40:51.278Z,43.59
2022-08-11T05:44:20.103Z,43.72
2022-08-11T05:46:58.345Z,43.55
2022-08-11T05:49:49.528Z,43.30
2022-08-11T05:52:41.842Z,43.67
2022-08-11T05:55:29.375Z,43.28
2022-08-11T05:58:00.364Z,43.60
2022-08-11T06:00:30.052Z,43.33
2022-08-11T06:03:07.726Z,43.54
2022-08-11T06:05:43.503Z,43.35
2022-08-11T06:08:14.728Z,43.80
2022-08-11T06:10:46.028Z,43.56
2022-08-11T06:13:18.311Z,43.32
2022-08-11T06:15:49.176Z,43.70
2022-08-11T06:18:20.962Z,43.73
2022-08-11T06:20:51.714Z,43.16
2022-08-11T06:23:23.684Z,43.45
2022-08-11T06:25:56.211Z,43.24
2022-08-11T06:28:33.746Z,43.00
2022-08-11T06:31:04.995Z,43.32
2022-08-11T06:33:43.945Z,42.89
2022-08-11T06:36:22.799Z,43.31
2022-08-11T06:39:03.966Z,43.17
2022-08-11T06:41:41.784Z,42.71
2022-08-11T06:44:17.912Z,42.45
2022-08-11T06:46:51.016Z,42.60
2022-08-11T06:49:40.962Z,42.75
2022-08-11T06:52:35.099Z,42.46
2022-08-11T06:55:12.604Z,42.72
2022-08-11T06:58:16.163Z,42.58
2022-08-11T07:00:47.226Z,42.59
2022-08-11T07:03:20.285Z,42.23
2022-08-11T07:05:55.052Z,42.59
2022-08-11T07:09:23.391Z,42.64
2022-08-11T07:12:31.620Z,42.22
2022-08-11T07:15:22.895Z,42.40
2022-08-11T07:18:13.035Z,42.20
2022-08-11T07:21:02.389Z,42.10
2022-08-11T07:23:54.310Z,42.11
2022-08-11T07:26:44.504Z,42.07
2022-08-11T07:29:16.633Z,42.12
2022-08-11T07:31:50.531Z,42.26
2022-08-11T07:34:23.766Z,42.30
2022-08-11T07:36:55.401Z,42.28
2022-08-11T07:39:27.600Z,42.38
2022-08-11T07:41:59.394Z,42.05
2022-08-11T07:44:34.685Z,41.66
2022-08-11T07:47:33.376Z,41.71
2022-08-11T07:50:20.193Z,41.80
2022-08-11T07:52:48.667Z,41.50
2022-08-11T07:55:51.815Z,41.55
2022-08-11T07:58:45.245Z,41.08
2022-08-11T08:01:40.899Z,40.93
2022-08-11T08:04:29.521Z,40.74
2022-08-11T08:07:17.559Z,40.73
2022-08-11T08:10:04.180Z,40.20
2022-08-11T08:12:54.013Z,40.00
2022-08-11T08:15:41.047Z,40.02
2022-08-11T08:18:26.259Z,39.90
2022-08-11T08:21:11.996Z,39.97
2022-08-11T08:23:43.124Z,39.82
2022-08-11T08:26:28.525Z,39.59
2022-08-11T08:29:16.020Z,39.25
2022-08-11T08:31:47.195Z,39.19
2022-08-11T08:34:17.840Z,39.00
2022-08-11T08:36:48.291Z,38.76
2022-08-11T08:39:22.126Z,38.59
2022-08-11T08:41:55.468Z,38.20
2022-08-11T08:44:38.407Z,38.01
2022-08-11T08:47:13.677Z,37.92
2022-08-11T08:49:49.895Z,37.75
2022-08-11T08:52:32.082Z,37.25
2022-08-11T08:55:07.896Z,37.25
2022-08-11T08:57:38.958Z,36.96
2022-08-11T09:00:13.800Z,36.71
2022-08-11T09:02:46.358Z,36.11
2022-08-11T09:05:19.191Z,35.59
2022-08-11T09:07:51.773Z,35.15
2022-08-11T09:10:21.623Z,35.04
2022-08-11T09:12:51.935Z,34.26
2022-08-11T09:15:24.060Z,34.23
2022-08-11T09:17:56.760Z,34.01
2022-08-11T09:20:29.193Z,33.64
2022-08-11T09:26:31.035Z,32.93
2022-08-11T09:29:01.881Z,32.66
2022-08-11T09:31:39.346Z,32.17
2022-08-11T09:34:11.349Z,31.78
2022-08-11T09:36:58.984Z,31.50
2022-08-11T09:39:47.000Z,30.57
2022-08-11T09:42:23.390Z,30.50
2022-08-11T09:44:53.818Z,30.03
2022-08-11T09:47:28.008Z,29.86
2022-08-11T09:50:01.334Z,29.68
2022-08-11T09:52:36.260Z,29.16
2022-08-11T09:55:11.054Z,28.73
2022-08-11T09:57:59.525Z,28.25
2022-08-11T10:00:32.225Z,27.93
2022-08-11T10:03:07.498Z,27.92
2022-08-11T10:05:53.511Z,27.35
2022-08-11T10:08:28.307Z,27.28
2022-08-11T10:10:57.776Z,27.15
2022-08-11T10:14:31.915Z,27.00
2022-08-11T10:16:26.376Z,26.21
2022-08-11T10:18:58.472Z,26.23
2022-08-11T10:21:30.349Z,25.75
2022-08-11T10:24:19.029Z,25.47
2022-08-11T10:27:00.240Z,25.02
2022-08-11T10:29:51.157Z,25.23
2022-08-11T10:32:58.084Z,24.95
2022-08-11T10:35:32.037Z,24.69
2022-08-11T10:38:08.357Z,24.87
2022-08-11T10:40:41.300Z,24.69
2022-08-11T10:43:14.324Z,24.34
2022-08-11T10:46:25.721Z,24.07
2022-08-11T10:49:00.042Z,23.95
2022-08-11T10:51:50.773Z,23.86
2022-08-11T10:54:39.745Z,23.75
2022-08-11T10:57:27.806Z,23.94
2022-08-11T10:59:57.545Z,23.25
2022-08-11T11:02:28.651Z,23.41
2022-08-11T11:05:04.648Z,23.25
2022-08-11T11:07:44.407Z,23.01
2022-08-11T11:10:13.439Z,22.63
2022-08-11T11:13:03.742Z,22.51
2022-08-11T11:15:53.121Z,22.39
2022-08-11T11:18:25.721Z,21.98
2022-08-11T11:20:58.335Z,21.90
2022-08-11T11:23:34.223Z,21.90
2022-08-11T11:26:33.036Z,21.62
2022-08-11T11:29:27.622Z,21.73
2022-08-11T11:32:13.100Z,21.53
2022-08-11T11:34:59.783Z,21.42
2022-08-11T11:37:33.371Z,21.02
2022-08-11T11:40:11.680Z,21.02
2022-08-11T11:42:42.846Z,20.62
2022-08-11T11:45:22.638Z,20.42
2022-08-11T11:47:56.118Z,20.26
2022-08-11T11:50:26.282Z,19.97
2022-08-11T11:53:03.345Z,20.19
2022-08-11T11:55:34.479Z,20.33
2022-08-11T11:58:22.219Z,20.39
2022-08-11T12:01:09.865Z,20.44
2022-08-11T12:03:39.513Z,20.43
2022-08-11T12:06:12.643Z,20.28
2022-08-11T12:08:42.157Z,20.04
2022-08-11T12:11:32.089Z,19.83
2022-08-11T12:14:04.725Z,19.90
2022-08-11T12:16:42.782Z,20.15
2022-08-11T12:19:14.486Z,19.98
2022-08-11T12:21:59.171Z,19.87
2022-08-11T12:24:48.403Z,19.65
2022-08-11T12:27:25.420Z,19.73
2022-08-11T12:29:57.733Z,19.14
2022-08-11T12:32:30.946Z,18.72
2022-08-11T12:34:59.875Z,19.04
2022-08-11T12:37:33.256Z,19.31
2022-08-11T12:40:50.140Z,19.11
2022-08-11T12:43:38.338Z,19.17
2022-08-11T12:46:11.915Z,19.12
2022-08-11T12:49:04.323Z,18.80
2022-08-11T12:52:12.068Z,18.72
2022-08-11T12:54:51.765Z,18.34
2022-08-11T12:57:47.437Z,18.21
2022-08-11T13:00:36.601Z,17.53
2022-08-11T13:03:26.295Z,17.82
2022-08-11T13:05:57.342Z,17.75
2022-08-11T13:08:29.535Z,17.76
2022-08-11T13:11:19.221Z,17.85
2022-08-11T13:13:54.031Z,17.81
2022-08-11T13:16:30.239Z,17.83
2022-08-11T13:19:01.725Z,17.60
2022-08-11T13:21:31.188Z,17.00
2022-08-11T13:24:03.540Z,17.24
2022-08-11T13:26:43.676Z,17.34
2022-08-11T13:29:20.613Z,17.40
2022-08-11T13:31:51.799Z,17.61
2022-08-11T13:34:21.671Z,17.61
2022-08-11T13:36:52.927Z,17.50
2022-08-11T13:39:24.429Z,17.42
2022-08-11T13:41:57.123Z,17.91
2022-08-11T13:44:28.718Z,17.81
2022-08-11T13:47:02.989Z,17.23
2022-08-11T13:49:32.668Z,17.41
2022-08-11T13:52:03.018Z,17.43
2022-08-11T13:54:35.653Z,17.52
2022-08-11T13:57:09.491Z,17.30
2022-08-11T14:00:09.654Z,17.86
2022-08-11T14:02:46.861Z,18.30
2022-08-11T14:05:18.043Z,18.31
2022-08-11T14:07:51.885Z,18.31
2022-08-11T14:10:23.040Z,18.33
2022-08-11T14:13:16.086Z,18.01
2022-08-11T14:15:47.288Z,18.09
2022-08-11T14:18:22.797Z,17.92
2022-08-11T14:21:13.288Z,18.10
2022-08-11T14:23:44.988Z,18.21
2022-08-11T14:26:28.120Z,18.50
2022-08-11T14:29:02.589Z,18.75
2022-08-11T14:31:33.019Z,18.69
2022-08-11T14:34:05.708Z,18.61
2022-08-11T14:36:37.018Z,18.61
2022-08-11T14:39:12.004Z,18.82
2022-08-11T14:42:11.754Z,18.73
2022-08-11T14:45:05.333Z,18.96
2022-08-11T14:47:36.571Z,18.70
2022-08-11T14:50:12.558Z,19.19
2022-08-11T14:52:46.924Z,19.06
2022-08-11T14:55:34.311Z,19.33
2022-08-11T14:58:04.130Z,19.16
2022-08-11T15:00:34.762Z,19.40
2022-08-11T15:03:11.025Z,19.20
2022-08-11T15:05:57.202Z,19.43
2022-08-11T15:08:48.039Z,19.67
2022-08-11T15:11:36.363Z,20.08
2022-08-11T15:14:07.419Z,20.27
2022-08-11T15:16:55.232Z,20.15
2022-08-11T15:19:40.381Z,19.92
2022-08-11T15:22:30.002Z,19.98
2022-08-11T15:24:59.787Z,20.30
2022-08-11T15:27:48.282Z,20.06
2022-08-11T15:30:35.155Z,20.45
2022-08-11T15:33:26.647Z,20.11
2022-08-11T15:36:18.355Z,20.37
2022-08-11T15:38:55.342Z,20.21
2022-08-11T15:41:58.604Z,20.38
2022-08-11T15:45:03.563Z,20.11
2022-08-11T15:47:39.275Z,19.95
2022-08-11T15:50:16.004Z,19.99
2022-08-11T15:52:54.100Z,19.60
2022-08-11T15:55:25.494Z,19.50
2022-08-11T15:58:15.387Z,19.30
2022-08-11T16:01:08.886Z,19.46
2022-08-11T16:04:07.435Z,19.48
2022-08-11T16:06:51.416Z,19.62
2022-08-11T16:09:26.437Z,19.78
2022-08-11T16:12:04.723Z,19.84
2022-08-11T16:14:54.411Z,19.71
2022-08-11T16:17:27.192Z,19.92
2022-08-11T16:19:58.356Z,19.78
2022-08-11T16:22:36.543Z,19.54
2022-08-11T16:27:06.893Z,19.84
2022-08-11T16:28:03.912Z,19.74
2022-08-11T16:30:33.172Z,19.94
2022-08-11T16:33:48.792Z,20.13
2022-08-11T16:36:13.476Z,20.21
2022-08-11T16:38:44.074Z,20.57
2022-08-11T16:41:37.180Z,20.68
2022-08-11T16:44:32.810Z,20.72
2022-08-11T16:47:09.098Z,20.71
2022-08-11T16:49:43.611Z,20.78
2022-08-11T16:52:23.895Z,20.43
2022-08-11T16:54:53.433Z,21.04
2022-08-11T16:57:42.780Z,20.71
2022-08-11T17:00:16.217Z,21.13
2022-08-11T17:03:06.099Z,21.49
2022-08-11T17:05:55.858Z,21.45
2022-08-11T17:08:57.188Z,21.43
2022-08-11T17:11:46.533Z,21.78
2022-08-11T17:14:36.114Z,21.85
2022-08-11T17:17:12.393Z,22.42
2022-08-11T17:20:42.469Z,22.65
2022-08-11T17:22:54.478Z,22.41
2022-08-11T17:25:25.875Z,22.86
2022-08-11T17:27:56.794Z,22.94
2022-08-11T17:30:48.789Z,22.87
2022-08-11T17:33:37.965Z,22.89
2022-08-11T17:36:08.399Z,22.86
2022-08-11T17:38:37.705Z,23.05
2022-08-11T17:41:26.388Z,23.58
2022-08-11T17:44:13.622Z,23.91
2022-08-11T17:47:05.665Z,23.64
2022-08-11T17:49:39.928Z,24.06
2022-08-11T17:52:31.895Z,23.71
2022-08-11T17:55:51.127Z,24.29
2022-08-11T17:58:32.321Z,24.40
2022-08-11T18:01:09.045Z,24.26
2022-08-11T18:03:41.041Z,24.69
2022-08-11T18:06:14.147Z,24.51
2022-08-11T18:09:05.299Z,24.62
2022-08-11T18:12:11.240Z,25.12
2022-08-11T18:15:03.024Z,25.14
2022-08-11T18:17:49.266Z,25.22
2022-08-11T18:20:36.896Z,25.66
2022-08-11T18:23:41.793Z,25.95
2022-08-11T18:26:36.786Z,26.21
2022-08-11T18:29:26.238Z,26.44
2022-08-11T18:32:22.189Z,26.65
2022-08-11T18:35:14.036Z,27.17
2022-08-11T18:38:04.879Z,27.24
2022-08-11T18:40:54.505Z,27.67
2022-08-11T18:43:44.685Z,27.73
2022-08-11T18:46:32.475Z,28.03
2022-08-11T18:50:02.353Z,28.34
2022-08-11T18:52:35.965Z,28.71
2022-08-11T18:55:24.912Z,28.97
2022-08-11T18:58:13.435Z,28.76
2022-08-11T19:01:01.912Z,29.14
2022-08-11T19:03:51.160Z,29.30
2022-08-11T19:06:41.234Z,29.57
2022-08-11T19:09:31.223Z,29.64
2022-08-11T19:12:19.099Z,29.91
2022-08-11T19:15:09.609Z,29.95
2022-08-11T19:18:01.597Z,30.07
2022-08-11T19:20:50.254Z,29.85
2022-08-11T19:23:43.432Z,30.13
2022-08-11T19:26:30.340Z,30.22
2022-08-11T19:30:07.417Z,30.42
2022-08-11T19:32:26.647Z,30.51
2022-08-11T19:35:15.217Z,30.50
2022-08-11T19:38:05.464Z,30.54
2022-08-11T19:40:52.933Z,30.61
2022-08-11T19:43:39.321Z,30.71
2022-08-11T19:46:27.224Z,30.85
2022-08-11T19:49:15.881Z,31.13
2022-08-11T19:52:04.636Z,31.08
2022-08-11T19:54:54.453Z,31.46
2022-08-11T19:57:43.635Z,31.34
2022-08-11T20:00:33.853Z,31.68
2022-08-11T20:03:22.200Z,31.98
2022-08-11T20:06:11.524Z,32.18
2022-08-11T20:09:00.921Z,32.30
2022-08-11T20:11:50.374Z,32.28
2022-08-11T20:14:38.883Z,32.32
2022-08-11T20:17:26.472Z,32.43
2022-08-11T20:20:14.018Z,32.70
2022-08-11T20:23:02.189Z,32.46
2022-08-11T20:25:48.720Z,32.86
2022-08-11T20:28:38.111Z,33.15
2022-08-11T20:31:26.430Z,32.95
2022-08-11T20:34:14.343Z,33.32
2022-08-11T20:37:03.236Z,33.22
2022-08-11T20:39:53.228Z,33.20
2022-08-11T20:42:41.642Z,33.08
2022-08-11T20:45:29.332Z,33.51
2022-08-11T20:48:17.444Z,33.34
2022-08-11T20:51:05.988Z,33.69
2022-08-11T20:53:54.562Z,33.94
2022-08-11T20:56:44.359Z,34.00
2022-08-11T20:59:33.309Z,34.07
2022-08-11T21:02:41.203Z,34.08
2022-08-11T21:06:10.071Z,34.14
2022-08-11T21:08:41.739Z,34.25
2022-08-11T21:11:29.279Z,34.12
2022-08-11T21:14:19.518Z,34.54
2022-08-11T21:17:27.113Z,34.59
2022-08-11T21:20:21.212Z,34.49
2022-08-11T21:23:10.392Z,34.60
2022-08-11T21:26:04.810Z,35.05
2022-08-11T21:28:53.648Z,34.75
2022-08-11T21:31:44.705Z,35.40
2022-08-11T21:34:32.941Z,35.23
2022-08-11T21:37:20.900Z,35.70
2022-08-11T21:40:14.916Z,36.16
2022-08-11T21:43:07.234Z,36.53
2022-08-11T21:45:55.692Z,36.70
2022-08-11T21:48:45.920Z,36.70
2022-08-11T21:51:32.278Z,36.60
2022-08-11T21:54:20.775Z,36.86
2022-08-11T21:57:07.021Z,37.15
2022-08-11T22:00:11.111Z,37.12
2022-08-11T22:02:58.424Z,37.40
2022-08-11T22:05:47.584Z,37.35
2022-08-11T22:08:33.928Z,37.80
2022-08-11T22:11:32.024Z,37.73
2022-08-11T22:14:19.423Z,37.83
2022-08-11T22:17:06.151Z,37.96
2022-08-11T22:19:54.594Z,38.59
2022-08-11T22:22:52.047Z,38.36
2022-08-11T22:25:46.471Z,38.63
2022-08-11T22:28:38.906Z,38.60
2022-08-11T22:31:26.900Z,38.85
2022-08-11T22:34:13.107Z,39.10
2022-08-11T22:36:59.950Z,38.52
2022-08-11T22:40:00.063Z,38.40
2022-08-11T22:42:49.035Z,38.35
2022-08-11T22:45:36.336Z,38.47
2022-08-11T22:48:23.759Z,38.02
2022-08-11T22:51:11.356Z,38.17
2022-08-11T22:53:59.245Z,37.91
2022-08-11T22:56:48.134Z,38.18
2022-08-11T22:59:36.312Z,38.27
2022-08-11T23:02:23.977Z,37.75
2022-08-11T23:05:10.467Z,37.69
2022-08-11T23:07:58.311Z,38.01
2022-08-11T23:10:46.003Z,38.01
2022-08-11T23:13:34.840Z,37.96
2022-08-11T23:16:21.344Z,37.99
2022-08-11T23:19:08.997Z,38.05
2022-08-11T23:21:57.110Z,38.07
2022-08-11T23:24:44.644Z,38.09
2022-08-11T23:27:32.802Z,37.89
2022-08-11T23:30:20.759Z,38.04
2022-08-11T23:33:12.882Z,37.82
2022-08-11T23:36:05.393Z,38.25
2022-08-11T23:38:52.671Z,38.25
2022-08-11T23:41:39.394Z,38.16
2022-08-11T23:44:27.523Z,38.35
2022-08-11T23:47:17.031Z,38.40
2022-08-11T23:50:05.820Z,38.74
2022-08-11T23:52:53.218Z,38.54
2022-08-11T23:55:40.552Z,38.74
2022-08-11T23:58:26.872Z,38.65
